sensor_id;sensor_type;location;lat;lon;timestamp;pressure;altitude;pressure_sealevel;temperature;humidity
8069;BME280;4077;43.702;24.896;2024-02-15T00:01:57;51451.16;;;-145.38;100.00
8069;BME280;4077;43.702;24.896;2024-02-15T00:04:22;51429.69;;;-145.38;100.00
8069;BME280;4077;43.702;24.896;2024-02-15T00:06:48;51486.28;;;-145.38;100.00
8069;BME280;4077;43.702;24.896;2024-02-15T00:09:13;51443.34;;;-145.38;100.00
8069;BME280;4077;43.702;24.896;2024-02-15T00:11:38;51478.50;;;-145.38;100.00
8069;BME280;4077;43.702;24.896;2024-02-15T00:14:04;51507.78;;;-145.38;100.00
8069;BME280;4077;43.702;24.896;2024-02-15T00:16:30;51423.81;;;-145.38;100.00
8069;BME280;4077;43.702;24.896;2024-02-15T00:18:55;51478.50;;;-145.38;100.00
8069;BME280;4077;43.702;24.896;2024-02-15T00:21:22;51427.72;;;-145.38;100.00
8069;BME280;4077;43.702;24.896;2024-02-15T00:23:48;51431.63;;;-145.38;100.00
8069;BME280;4077;43.702;24.896;2024-02-15T00:26:14;51472.63;;;-145.38;100.00
8069;BME280;4077;43.702;24.896;2024-02-15T00:28:41;51451.16;;;-145.38;100.00
8069;BME280;4077;43.702;24.896;2024-02-15T00:31:07;51435.53;;;-145.38;100.00
8069;BME280;4077;43.702;24.896;2024-02-15T00:33:33;51404.31;;;-145.38;100.00
8069;BME280;4077;43.702;24.896;2024-02-15T00:36:02;51453.09;;;-145.38;100.00
8069;BME280;4077;43.702;24.896;2024-02-15T00:38:29;51402.34;;;-145.38;100.00
8069;BME280;4077;43.702;24.896;2024-02-15T00:40:54;51443.34;;;-145.38;100.00
8069;BME280;4077;43.702;24.896;2024-02-15T00:43:20;51447.25;;;-145.38;100.00
8069;BME280;4077;43.702;24.896;2024-02-15T00:45:45;51445.31;;;-145.38;100.00
8069;BME280;4077;43.702;24.896;2024-02-15T00:48:11;51449.22;;;-145.38;100.00
8069;BME280;4077;43.702;24.896;2024-02-15T00:50:37;51462.88;;;-145.38;100.00
8069;BME280;4077;43.702;24.896;2024-02-15T00:53:03;51460.91;;;-145.38;100.00
8069;BME280;4077;43.702;24.896;2024-02-15T00:55:28;51421.88;;;-145.38;100.00
8069;BME280;4077;43.702;24.896;2024-02-15T00:57:54;51458.97;;;-145.38;100.00
8069;BME280;4077;43.702;24.896;2024-02-15T01:00:19;51476.53;;;-145.38;100.00
8069;BME280;4077;43.702;24.896;2024-02-15T01:02:45;51443.34;;;-145.38;100.00
8069;BME280;4077;43.702;24.896;2024-02-15T01:05:11;51404.31;;;-145.38;100.00
8069;BME280;4077;43.702;24.896;2024-02-15T01:07:36;51425.78;;;-145.38;100.00
8069;BME280;4077;43.702;24.896;2024-02-15T01:10:02;51494.09;;;-145.38;100.00
8069;BME280;4077;43.702;24.896;2024-02-15T01:12:28;51460.91;;;-145.38;100.00
8069;BME280;4077;43.702;24.896;2024-02-15T01:14:54;51458.97;;;-145.38;100.00
8069;BME280;4077;43.702;24.896;2024-02-15T01:17:21;51470.69;;;-145.38;100.00
8069;BME280;4077;43.702;24.896;2024-02-15T01:19:47;51478.50;;;-145.38;100.00
8069;BME280;4077;43.702;24.896;2024-02-15T01:22:12;51457.00;;;-145.38;100.00
8069;BME280;4077;43.702;24.896;2024-02-15T01:24:38;51451.16;;;-145.38;100.00
8069;BME280;4077;43.702;24.896;2024-02-15T01:27:03;51439.44;;;-145.38;100.00
8069;BME280;4077;43.702;24.896;2024-02-15T01:29:29;51433.59;;;-145.38;100.00
8069;BME280;4077;43.702;24.896;2024-02-15T01:31:54;51464.81;;;-145.38;100.00
8069;BME280;4077;43.702;24.896;2024-02-15T01:34:19;51455.06;;;-145.38;100.00
8069;BME280;4077;43.702;24.896;2024-02-15T01:36:48;51443.34;;;-145.38;100.00
8069;BME280;4077;43.702;24.896;2024-02-15T01:39:13;51425.78;;;-145.38;100.00
8069;BME280;4077;43.702;24.896;2024-02-15T01:41:39;51433.59;;;-145.38;100.00
8069;BME280;4077;43.702;24.896;2024-02-15T01:44:04;51441.41;;;-145.38;100.00
8069;BME280;4077;43.702;24.896;2024-02-15T01:46:31;51480.44;;;-145.38;100.00
8069;BME280;4077;43.702;24.896;2024-02-15T01:48:57;51478.50;;;-145.38;100.00
8069;BME280;4077;43.702;24.896;2024-02-15T01:51:23;51458.97;;;-145.38;100.00
8069;BME280;4077;43.702;24.896;2024-02-15T01:53:53;51453.09;;;-145.38;100.00
8069;BME280;4077;43.702;24.896;2024-02-15T01:56:20;51451.16;;;-145.38;100.00
8069;BME280;4077;43.702;24.896;2024-02-15T01:58:48;51435.53;;;-145.38;100.00
8069;BME280;4077;43.702;24.896;2024-02-15T02:01:14;51462.88;;;-145.38;100.00
8069;BME280;4077;43.702;24.896;2024-02-15T02:03:40;51457.00;;;-145.38;100.00
8069;BME280;4077;43.702;24.896;2024-02-15T02:06:05;51435.53;;;-145.38;100.00
8069;BME280;4077;43.702;24.896;2024-02-15T02:08:31;51472.63;;;-145.38;100.00
8069;BME280;4077;43.702;24.896;2024-02-15T02:10:56;51453.09;;;-145.38;100.00
8069;BME280;4077;43.702;24.896;2024-02-15T02:13:23;51462.88;;;-145.38;100.00
8069;BME280;4077;43.702;24.896;2024-02-15T02:15:48;51490.19;;;-145.38;100.00
8069;BME280;4077;43.702;24.896;2024-02-15T02:18:14;51458.97;;;-145.38;100.00
8069;BME280;4077;43.702;24.896;2024-02-15T02:20:40;51439.44;;;-145.38;100.00
8069;BME280;4077;43.702;24.896;2024-02-15T02:23:15;51468.72;;;-145.38;100.00
8069;BME280;4077;43.702;24.896;2024-02-15T02:25:41;51519.47;;;-145.38;100.00
8069;BME280;4077;43.702;24.896;2024-02-15T02:28:08;51455.06;;;-145.38;100.00
8069;BME280;4077;43.702;24.896;2024-02-15T02:30:34;51488.25;;;-145.38;100.00
8069;BME280;4077;43.702;24.896;2024-02-15T02:33:00;51470.69;;;-145.38;100.00
8069;BME280;4077;43.702;24.896;2024-02-15T02:35:26;51474.59;;;-145.38;100.00
8069;BME280;4077;43.702;24.896;2024-02-15T02:37:53;51449.22;;;-145.38;100.00
8069;BME280;4077;43.702;24.896;2024-02-15T02:40:19;51451.16;;;-145.38;100.00
8069;BME280;4077;43.702;24.896;2024-02-15T02:42:54;51441.41;;;-145.38;100.00
8069;BME280;4077;43.702;24.896;2024-02-15T02:45:25;51486.28;;;-145.38;100.00
8069;BME280;4077;43.702;24.896;2024-02-15T02:47:52;51482.38;;;-145.38;100.00
8069;BME280;4077;43.702;24.896;2024-02-15T02:50:18;51443.34;;;-145.38;100.00
8069;BME280;4077;43.702;24.896;2024-02-15T02:52:44;51474.59;;;-145.38;100.00
8069;BME280;4077;43.702;24.896;2024-02-15T02:55:10;51433.59;;;-145.38;100.00
8069;BME280;4077;43.702;24.896;2024-02-15T02:57:39;51458.97;;;-145.38;100.00
8069;BME280;4077;43.702;24.896;2024-02-15T03:00:09;51474.59;;;-145.38;100.00
8069;BME280;4077;43.702;24.896;2024-02-15T03:02:38;51445.31;;;-145.38;100.00
8069;BME280;4077;43.702;24.896;2024-02-15T03:05:05;51466.78;;;-145.38;100.00
8069;BME280;4077;43.702;24.896;2024-02-15T03:07:35;51468.72;;;-145.38;100.00
8069;BME280;4077;43.702;24.896;2024-02-15T03:10:01;51458.97;;;-145.38;100.00
8069;BME280;4077;43.702;24.896;2024-02-15T03:12:27;51466.78;;;-145.38;100.00
8069;BME280;4077;43.702;24.896;2024-02-15T03:14:55;51482.38;;;-145.38;100.00
8069;BME280;4077;43.702;24.896;2024-02-15T03:17:20;51480.44;;;-145.38;100.00
8069;BME280;4077;43.702;24.896;2024-02-15T03:19:46;51464.81;;;-145.38;100.00
8069;BME280;4077;43.702;24.896;2024-02-15T03:22:14;51462.88;;;-145.38;100.00
8069;BME280;4077;43.702;24.896;2024-02-15T03:24:39;51458.97;;;-145.38;100.00
8069;BME280;4077;43.702;24.896;2024-02-15T03:27:05;51449.22;;;-145.38;100.00
8069;BME280;4077;43.702;24.896;2024-02-15T03:29:30;51486.28;;;-145.38;100.00
8069;BME280;4077;43.702;24.896;2024-02-15T03:31:56;51474.59;;;-145.38;100.00
8069;BME280;4077;43.702;24.896;2024-02-15T03:34:21;51474.59;;;-145.38;100.00
8069;BME280;4077;43.702;24.896;2024-02-15T03:36:48;51482.38;;;-145.38;100.00
8069;BME280;4077;43.702;24.896;2024-02-15T03:39:19;51466.78;;;-145.38;100.00
8069;BME280;4077;43.702;24.896;2024-02-15T03:41:44;51447.25;;;-145.38;100.00
8069;BME280;4077;43.702;24.896;2024-02-15T03:44:12;51458.97;;;-145.38;100.00
8069;BME280;4077;43.702;24.896;2024-02-15T03:46:37;51464.81;;;-145.38;100.00
8069;BME280;4077;43.702;24.896;2024-02-15T03:49:03;51458.97;;;-145.38;100.00
8069;BME280;4077;43.702;24.896;2024-02-15T03:51:28;51441.41;;;-145.38;100.00
8069;BME280;4077;43.702;24.896;2024-02-15T03:53:54;51482.38;;;-145.38;100.00
8069;BME280;4077;43.702;24.896;2024-02-15T03:56:19;51466.78;;;-145.38;100.00
8069;BME280;4077;43.702;24.896;2024-02-15T03:58:48;51443.34;;;-145.38;100.00
8069;BME280;4077;43.702;24.896;2024-02-15T04:01:16;51462.88;;;-145.38;100.00
8069;BME280;4077;43.702;24.896;2024-02-15T04:03:41;51457.00;;;-145.38;100.00
8069;BME280;4077;43.702;24.896;2024-02-15T04:06:06;51449.22;;;-145.38;100.00
8069;BME280;4077;43.702;24.896;2024-02-15T04:08:32;51468.72;;;-145.38;100.00
8069;BME280;4077;43.702;24.896;2024-02-15T04:10:59;51490.19;;;-145.38;100.00
8069;BME280;4077;43.702;24.896;2024-02-15T04:13:24;51447.25;;;-145.38;100.00
8069;BME280;4077;43.702;24.896;2024-02-15T04:15:50;51482.38;;;-145.38;100.00
8069;BME280;4077;43.702;24.896;2024-02-15T04:18:18;51486.28;;;-145.38;100.00
8069;BME280;4077;43.702;24.896;2024-02-15T04:20:43;51443.34;;;-145.38;100.00
8069;BME280;4077;43.702;24.896;2024-02-15T04:23:11;51429.69;;;-145.38;100.00
8069;BME280;4077;43.702;24.896;2024-02-15T04:25:36;51451.16;;;-145.38;100.00
8069;BME280;4077;43.702;24.896;2024-02-15T04:28:02;51482.38;;;-145.38;100.00
8069;BME280;4077;43.702;24.896;2024-02-15T04:30:29;51458.97;;;-145.38;100.00
8069;BME280;4077;43.702;24.896;2024-02-15T04:32:55;51439.44;;;-145.38;100.00
8069;BME280;4077;43.702;24.896;2024-02-15T04:35:21;51478.50;;;-145.38;100.00
8069;BME280;4077;43.702;24.896;2024-02-15T04:37:47;51443.34;;;-145.38;100.00
8069;BME280;4077;43.702;24.896;2024-02-15T04:40:14;51474.59;;;-145.38;100.00
8069;BME280;4077;43.702;24.896;2024-02-15T04:42:40;51447.25;;;-145.38;100.00
8069;BME280;4077;43.702;24.896;2024-02-15T04:45:08;51486.28;;;-145.38;100.00
8069;BME280;4077;43.702;24.896;2024-02-15T04:47:36;51509.72;;;-145.38;100.00
8069;BME280;4077;43.702;24.896;2024-02-15T04:50:02;51455.06;;;-145.38;100.00
8069;BME280;4077;43.702;24.896;2024-02-15T04:52:27;51517.53;;;-145.38;100.00
8069;BME280;4077;43.702;24.896;2024-02-15T04:54:53;51462.88;;;-145.38;100.00
8069;BME280;4077;43.702;24.896;2024-02-15T04:57:23;51474.59;;;-145.38;100.00
8069;BME280;4077;43.702;24.896;2024-02-15T04:59:50;51460.91;;;-145.38;100.00
8069;BME280;4077;43.702;24.896;2024-02-15T05:02:15;51431.63;;;-145.38;100.00
8069;BME280;4077;43.702;24.896;2024-02-15T05:04:42;51494.09;;;-145.38;100.00
8069;BME280;4077;43.702;24.896;2024-02-15T05:07:09;51468.72;;;-145.38;100.00
8069;BME280;4077;43.702;24.896;2024-02-15T05:09:34;51474.59;;;-145.38;100.00
8069;BME280;4077;43.702;24.896;2024-02-15T05:12:01;51499.97;;;-145.38;100.00
8069;BME280;4077;43.702;24.896;2024-02-15T05:14:30;51453.09;;;-145.38;100.00
8069;BME280;4077;43.702;24.896;2024-02-15T05:16:56;51470.69;;;-145.38;100.00
8069;BME280;4077;43.702;24.896;2024-02-15T05:19:21;51482.38;;;-145.38;100.00
8069;BME280;4077;43.702;24.896;2024-02-15T05:21:47;51486.28;;;-145.38;100.00
8069;BME280;4077;43.702;24.896;2024-02-15T05:24:16;51525.34;;;-145.38;100.00
8069;BME280;4077;43.702;24.896;2024-02-15T05:26:44;51501.91;;;-145.38;100.00
8069;BME280;4077;43.702;24.896;2024-02-15T05:29:12;51501.91;;;-145.38;100.00
8069;BME280;4077;43.702;24.896;2024-02-15T05:31:38;51501.91;;;-145.38;100.00
8069;BME280;4077;43.702;24.896;2024-02-15T05:34:06;51501.91;;;-145.38;100.00
8069;BME280;4077;43.702;24.896;2024-02-15T05:36:36;51490.19;;;-145.38;100.00
8069;BME280;4077;43.702;24.896;2024-02-15T05:39:03;51498.00;;;-145.38;100.00
8069;BME280;4077;43.702;24.896;2024-02-15T05:41:30;51482.38;;;-145.38;100.00
8069;BME280;4077;43.702;24.896;2024-02-15T05:43:57;51501.91;;;-145.38;100.00
8069;BME280;4077;43.702;24.896;2024-02-15T05:46:23;51486.28;;;-145.38;100.00
8069;BME280;4077;43.702;24.896;2024-02-15T05:48:49;51492.16;;;-145.38;100.00
8069;BME280;4077;43.702;24.896;2024-02-15T05:51:15;51505.81;;;-145.38;100.00
8069;BME280;4077;43.702;24.896;2024-02-15T05:53:41;51460.91;;;-145.38;100.00
8069;BME280;4077;43.702;24.896;2024-02-15T05:56:08;51494.09;;;-145.38;100.00
8069;BME280;4077;43.702;24.896;2024-02-15T05:58:34;51511.69;;;-145.38;100.00
8069;BME280;4077;43.702;24.896;2024-02-15T06:01:00;51498.00;;;-145.38;100.00
8069;BME280;4077;43.702;24.896;2024-02-15T06:03:34;51492.16;;;-145.38;100.00
8069;BME280;4077;43.702;24.896;2024-02-15T06:06:03;51462.88;;;-145.38;100.00
8069;BME280;4077;43.702;24.896;2024-02-15T06:08:35;51513.63;;;-145.38;100.00
8069;BME280;4077;43.702;24.896;2024-02-15T06:11:01;51499.97;;;-145.38;100.00
8069;BME280;4077;43.702;24.896;2024-02-15T06:13:27;51478.50;;;-145.38;100.00
8069;BME280;4077;43.702;24.896;2024-02-15T06:15:53;51482.38;;;-145.38;100.00
8069;BME280;4077;43.702;24.896;2024-02-15T06:18:24;51501.91;;;-145.38;100.00
8069;BME280;4077;43.702;24.896;2024-02-15T06:20:59;51525.34;;;-145.38;100.00
8069;BME280;4077;43.702;24.896;2024-02-15T06:23:25;51435.53;;;-145.38;100.00
8069;BME280;4077;43.702;24.896;2024-02-15T06:25:53;51466.78;;;-145.38;100.00
8069;BME280;4077;43.702;24.896;2024-02-15T06:28:22;51437.50;;;-145.38;100.00
8069;BME280;4077;43.702;24.896;2024-02-15T06:31:07;51470.69;;;-145.38;100.00
8069;BME280;4077;43.702;24.896;2024-02-15T06:33:52;51441.41;;;-145.38;100.00
8069;BME280;4077;43.702;24.896;2024-02-15T06:36:52;51462.88;;;-145.38;100.00
8069;BME280;4077;43.702;24.896;2024-02-15T06:39:36;51458.97;;;-145.38;100.00
8069;BME280;4077;43.702;24.896;2024-02-15T06:42:16;51482.38;;;-145.38;100.00
8069;BME280;4077;43.702;24.896;2024-02-15T06:44:44;51509.72;;;-145.38;100.00
8069;BME280;4077;43.702;24.896;2024-02-15T06:47:10;51492.16;;;-145.38;100.00
8069;BME280;4077;43.702;24.896;2024-02-15T06:49:39;51472.63;;;-145.38;100.00
8069;BME280;4077;43.702;24.896;2024-02-15T06:52:09;51447.25;;;-145.38;100.00
8069;BME280;4077;43.702;24.896;2024-02-15T06:54:38;51462.88;;;-145.38;100.00
8069;BME280;4077;43.702;24.896;2024-02-15T06:57:04;51470.69;;;-145.38;100.00
8069;BME280;4077;43.702;24.896;2024-02-15T06:59:30;51451.16;;;-145.38;100.00
8069;BME280;4077;43.702;24.896;2024-02-15T07:02:00;51482.38;;;-145.38;100.00
8069;BME280;4077;43.702;24.896;2024-02-15T07:04:25;51462.88;;;-145.38;100.00
8069;BME280;4077;43.702;24.896;2024-02-15T07:06:51;51505.81;;;-145.38;100.00
8069;BME280;4077;43.702;24.896;2024-02-15T07:09:22;51443.34;;;-145.38;100.00
8069;BME280;4077;43.702;24.896;2024-02-15T07:11:52;51466.78;;;-145.38;100.00
8069;BME280;4077;43.702;24.896;2024-02-15T07:14:17;51466.78;;;-145.38;100.00
8069;BME280;4077;43.702;24.896;2024-02-15T07:16:46;51478.50;;;-145.38;100.00
8069;BME280;4077;43.702;24.896;2024-02-15T07:19:13;51474.59;;;-145.38;100.00
8069;BME280;4077;43.702;24.896;2024-02-15T07:21:39;51441.41;;;-145.38;100.00
8069;BME280;4077;43.702;24.896;2024-02-15T07:24:05;51478.50;;;-145.38;100.00
8069;BME280;4077;43.702;24.896;2024-02-15T07:26:30;51458.97;;;-145.38;100.00
8069;BME280;4077;43.702;24.896;2024-02-15T07:28:56;51435.53;;;-145.38;100.00
8069;BME280;4077;43.702;24.896;2024-02-15T07:31:23;51501.91;;;-145.38;100.00
8069;BME280;4077;43.702;24.896;2024-02-15T07:33:50;51501.91;;;-145.38;100.00
8069;BME280;4077;43.702;24.896;2024-02-15T07:36:19;51470.69;;;-145.38;100.00
8069;BME280;4077;43.702;24.896;2024-02-15T07:38:47;51462.88;;;-145.38;100.00
8069;BME280;4077;43.702;24.896;2024-02-15T07:41:17;51435.53;;;-145.38;100.00
8069;BME280;4077;43.702;24.896;2024-02-15T07:43:43;51429.69;;;-145.38;100.00
8069;BME280;4077;43.702;24.896;2024-02-15T07:46:13;51453.09;;;-145.38;100.00
8069;BME280;4077;43.702;24.896;2024-02-15T07:48:39;51435.53;;;-145.38;100.00
8069;BME280;4077;43.702;24.896;2024-02-15T07:51:09;51431.63;;;-145.38;100.00
8069;BME280;4077;43.702;24.896;2024-02-15T07:53:35;51466.78;;;-145.38;100.00
8069;BME280;4077;43.702;24.896;2024-02-15T07:56:00;51427.72;;;-145.38;100.00
8069;BME280;4077;43.702;24.896;2024-02-15T07:58:26;51470.69;;;-145.38;100.00
8069;BME280;4077;43.702;24.896;2024-02-15T08:00:51;51474.59;;;-145.38;100.00
8069;BME280;4077;43.702;24.896;2024-02-15T08:03:16;51439.44;;;-145.38;100.00
8069;BME280;4077;43.702;24.896;2024-02-15T08:05:42;51458.97;;;-145.38;100.00
8069;BME280;4077;43.702;24.896;2024-02-15T08:08:07;51439.44;;;-145.38;100.00
8069;BME280;4077;43.702;24.896;2024-02-15T08:10:33;51439.44;;;-145.38;100.00
8069;BME280;4077;43.702;24.896;2024-02-15T08:12:59;51490.19;;;-145.38;100.00
8069;BME280;4077;43.702;24.896;2024-02-15T08:15:25;51453.09;;;-145.38;100.00
8069;BME280;4077;43.702;24.896;2024-02-15T08:17:52;51429.69;;;-145.38;100.00
8069;BME280;4077;43.702;24.896;2024-02-15T08:20:20;51437.50;;;-145.38;100.00
8069;BME280;4077;43.702;24.896;2024-02-15T08:22:48;51494.09;;;-145.38;100.00
8069;BME280;4077;43.702;24.896;2024-02-15T08:25:14;51458.97;;;-145.38;100.00
8069;BME280;4077;43.702;24.896;2024-02-15T08:27:47;51447.25;;;-145.38;100.00
8069;BME280;4077;43.702;24.896;2024-02-15T08:30:15;51453.09;;;-145.38;100.00
8069;BME280;4077;43.702;24.896;2024-02-15T08:32:41;51482.38;;;-145.38;100.00
8069;BME280;4077;43.702;24.896;2024-02-15T08:35:08;51468.72;;;-145.38;100.00
8069;BME280;4077;43.702;24.896;2024-02-15T08:37:37;51458.97;;;-145.38;100.00
8069;BME280;4077;43.702;24.896;2024-02-15T08:40:04;51458.97;;;-145.38;100.00
8069;BME280;4077;43.702;24.896;2024-02-15T08:42:39;51480.44;;;-145.38;100.00
8069;BME280;4077;43.702;24.896;2024-02-15T08:45:05;51443.34;;;-145.38;100.00
8069;BME280;4077;43.702;24.896;2024-02-15T08:47:36;51470.69;;;-145.38;100.00
8069;BME280;4077;43.702;24.896;2024-02-15T08:50:06;51453.09;;;-145.38;100.00
8069;BME280;4077;43.702;24.896;2024-02-15T08:52:54;51445.31;;;-145.38;100.00
8069;BME280;4077;43.702;24.896;2024-02-15T08:55:20;51457.00;;;-145.38;100.00
8069;BME280;4077;43.702;24.896;2024-02-15T08:57:49;51458.97;;;-145.38;100.00
8069;BME280;4077;43.702;24.896;2024-02-15T09:00:15;51447.25;;;-145.38;100.00
8069;BME280;4077;43.702;24.896;2024-02-15T09:02:44;51449.22;;;-145.38;100.00
8069;BME280;4077;43.702;24.896;2024-02-15T09:05:10;51443.34;;;-145.38;100.00
8069;BME280;4077;43.702;24.896;2024-02-15T09:07:39;51482.38;;;-145.38;100.00
8069;BME280;4077;43.702;24.896;2024-02-15T09:10:07;51408.22;;;-145.38;100.00
8069;BME280;4077;43.702;24.896;2024-02-15T09:12:35;51468.72;;;-145.38;100.00
8069;BME280;4077;43.702;24.896;2024-02-15T09:15:02;51462.88;;;-145.38;100.00
8069;BME280;4077;43.702;24.896;2024-02-15T09:17:28;51453.09;;;-145.38;100.00
8069;BME280;4077;43.702;24.896;2024-02-15T09:19:56;51462.88;;;-145.38;100.00
8069;BME280;4077;43.702;24.896;2024-02-15T09:22:22;51431.63;;;-145.38;100.00
8069;BME280;4077;43.702;24.896;2024-02-15T09:24:48;51451.16;;;-145.38;100.00
8069;BME280;4077;43.702;24.896;2024-02-15T09:27:13;51431.63;;;-145.38;100.00
8069;BME280;4077;43.702;24.896;2024-02-15T09:29:39;51447.25;;;-145.38;100.00
8069;BME280;4077;43.702;24.896;2024-02-15T09:32:06;51460.91;;;-145.38;100.00
8069;BME280;4077;43.702;24.896;2024-02-15T09:34:31;51451.16;;;-145.38;100.00
8069;BME280;4077;43.702;24.896;2024-02-15T09:36:58;51451.16;;;-145.38;100.00
8069;BME280;4077;43.702;24.896;2024-02-15T09:39:23;51455.06;;;-145.38;100.00
8069;BME280;4077;43.702;24.896;2024-02-15T09:41:49;51412.13;;;-145.38;100.00
8069;BME280;4077;43.702;24.896;2024-02-15T09:44:23;51437.50;;;-145.38;100.00
8069;BME280;4077;43.702;24.896;2024-02-15T09:49:26;51443.34;;;-145.38;100.00
8069;BME280;4077;43.702;24.896;2024-02-15T09:51:53;51494.09;;;-145.38;100.00
8069;BME280;4077;43.702;24.896;2024-02-15T09:54:19;51464.81;;;-145.38;100.00
8069;BME280;4077;43.702;24.896;2024-02-15T09:56:50;51445.31;;;-145.38;100.00
8069;BME280;4077;43.702;24.896;2024-02-15T09:59:16;51435.53;;;-145.38;100.00
8069;BME280;4077;43.702;24.896;2024-02-15T10:01:42;51404.31;;;-145.38;100.00
8069;BME280;4077;43.702;24.896;2024-02-15T10:04:09;51423.81;;;-145.38;100.00
8069;BME280;4077;43.702;24.896;2024-02-15T10:06:41;51443.34;;;-145.38;100.00
8069;BME280;4077;43.702;24.896;2024-02-15T10:09:29;51382.84;;;-145.38;100.00
8069;BME280;4077;43.702;24.896;2024-02-15T10:11:56;51433.59;;;-145.38;100.00
8069;BME280;4077;43.702;24.896;2024-02-15T10:14:23;51390.66;;;-145.38;100.00
8069;BME280;4077;43.702;24.896;2024-02-15T10:16:49;51429.69;;;-145.38;100.00
8069;BME280;4077;43.702;24.896;2024-02-15T10:19:14;51392.59;;;-145.38;100.00
8069;BME280;4077;43.702;24.896;2024-02-15T10:21:41;51404.31;;;-145.38;100.00
8069;BME280;4077;43.702;24.896;2024-02-15T10:24:07;51421.88;;;-145.38;100.00
8069;BME280;4077;43.702;24.896;2024-02-15T10:26:34;51412.13;;;-145.38;100.00
8069;BME280;4077;43.702;24.896;2024-02-15T10:29:10;51400.41;;;-145.38;100.00
8069;BME280;4077;43.702;24.896;2024-02-15T10:31:37;51435.53;;;-145.38;100.00
8069;BME280;4077;43.702;24.896;2024-02-15T10:34:07;51419.94;;;-145.38;100.00
8069;BME280;4077;43.702;24.896;2024-02-15T10:36:33;51458.97;;;-145.38;100.00
8069;BME280;4077;43.702;24.896;2024-02-15T10:41:50;51435.53;;;-145.38;100.00
8069;BME280;4077;43.702;24.896;2024-02-15T10:44:21;51398.44;;;-145.38;100.00
8069;BME280;4077;43.702;24.896;2024-02-15T10:46:51;51416.03;;;-145.38;100.00
8069;BME280;4077;43.702;24.896;2024-02-15T10:49:18;51425.78;;;-145.38;100.00
8069;BME280;4077;43.702;24.896;2024-02-15T10:51:44;51412.13;;;-145.38;100.00
8069;BME280;4077;43.702;24.896;2024-02-15T10:54:12;51439.44;;;-145.38;100.00
8069;BME280;4077;43.702;24.896;2024-02-15T10:56:44;51400.41;;;-145.38;100.00
8069;BME280;4077;43.702;24.896;2024-02-15T10:59:19;51435.53;;;-145.38;100.00
8069;BME280;4077;43.702;24.896;2024-02-15T11:01:54;51384.78;;;-145.38;100.00
8069;BME280;4077;43.702;24.896;2024-02-15T11:04:24;51408.22;;;-145.38;100.00
8069;BME280;4077;43.702;24.896;2024-02-15T11:06:56;51427.72;;;-145.38;100.00
8069;BME280;4077;43.702;24.896;2024-02-15T11:09:23;51433.59;;;-145.38;100.00
8069;BME280;4077;43.702;24.896;2024-02-15T11:11:50;51400.41;;;-145.38;100.00
8069;BME280;4077;43.702;24.896;2024-02-15T11:14:30;51382.84;;;-145.38;100.00
8069;BME280;4077;43.702;24.896;2024-02-15T11:16:58;51419.94;;;-145.38;100.00
8069;BME280;4077;43.702;24.896;2024-02-15T11:22:00;51400.41;;;-145.38;100.00
8069;BME280;4077;43.702;24.896;2024-02-15T11:24:30;51394.53;;;-145.38;100.00
8069;BME280;4077;43.702;24.896;2024-02-15T11:27:03;51398.44;;;-145.38;100.00
8069;BME280;4077;43.702;24.896;2024-02-15T11:35:07;51425.78;;;-145.38;100.00
8069;BME280;4077;43.702;24.896;2024-02-15T11:40:26;51408.22;;;-145.38;100.00
8069;BME280;4077;43.702;24.896;2024-02-15T11:42:59;51410.16;;;-145.38;100.00
8069;BME280;4077;43.702;24.896;2024-02-15T11:45:28;51394.53;;;-145.38;100.00
8069;BME280;4077;43.702;24.896;2024-02-15T11:48:10;51404.31;;;-145.38;100.00
8069;BME280;4077;43.702;24.896;2024-02-15T11:50:37;51384.78;;;-145.38;100.00
8069;BME280;4077;43.702;24.896;2024-02-15T11:53:06;51398.44;;;-145.38;100.00
8069;BME280;4077;43.702;24.896;2024-02-15T11:55:35;51412.13;;;-145.38;100.00
8069;BME280;4077;43.702;24.896;2024-02-15T11:58:05;51396.50;;;-145.38;100.00
8069;BME280;4077;43.702;24.896;2024-02-15T12:00:34;51386.75;;;-145.38;100.00
8069;BME280;4077;43.702;24.896;2024-02-15T12:03:20;51400.41;;;-145.38;100.00
8069;BME280;4077;43.702;24.896;2024-02-15T12:06:05;51414.06;;;-145.38;100.00
8069;BME280;4077;43.702;24.896;2024-02-15T12:08:52;51423.81;;;-145.38;100.00
8069;BME280;4077;43.702;24.896;2024-02-15T12:11:37;51392.59;;;-145.38;100.00
8069;BME280;4077;43.702;24.896;2024-02-15T12:14:21;51373.06;;;-145.38;100.00
8069;BME280;4077;43.702;24.896;2024-02-15T12:17:08;51412.13;;;-145.38;100.00
8069;BME280;4077;43.702;24.896;2024-02-15T12:19:54;51419.94;;;-145.38;100.00
8069;BME280;4077;43.702;24.896;2024-02-15T12:22:47;51392.59;;;-145.38;100.00
8069;BME280;4077;43.702;24.896;2024-02-15T12:25:14;51414.06;;;-145.38;100.00
8069;BME280;4077;43.702;24.896;2024-02-15T12:27:42;51404.31;;;-145.38;100.00
8069;BME280;4077;43.702;24.896;2024-02-15T12:30:13;51396.50;;;-145.38;100.00
8069;BME280;4077;43.702;24.896;2024-02-15T12:32:39;51412.13;;;-145.38;100.00
8069;BME280;4077;43.702;24.896;2024-02-15T12:40:33;51384.78;;;-145.38;100.00
8069;BME280;4077;43.702;24.896;2024-02-15T12:42:59;51365.25;;;-145.38;100.00
8069;BME280;4077;43.702;24.896;2024-02-15T12:45:31;51363.31;;;-145.38;100.00
8069;BME280;4077;43.702;24.896;2024-02-15T12:47:57;51419.94;;;-145.38;100.00
8069;BME280;4077;43.702;24.896;2024-02-15T12:50:28;51416.03;;;-145.38;100.00
8069;BME280;4077;43.702;24.896;2024-02-15T12:52:54;51416.03;;;-145.38;100.00
8069;BME280;4077;43.702;24.896;2024-02-15T12:55:23;51425.78;;;-145.38;100.00
8069;BME280;4077;43.702;24.896;2024-02-15T12:57:53;51402.34;;;-145.38;100.00
8069;BME280;4077;43.702;24.896;2024-02-15T13:00:25;51380.88;;;-145.38;100.00
8069;BME280;4077;43.702;24.896;2024-02-15T13:02:55;51388.69;;;-145.38;100.00
8069;BME280;4077;43.702;24.896;2024-02-15T13:05:22;51398.44;;;-145.38;98.13
8069;BME280;4077;43.702;24.896;2024-02-15T13:07:50;51421.88;;;-145.38;93.26